createdAt,value
2019-06-26T00:00:52.024Z,98312.95
2019-06-26T00:01:55.931Z,98319.35
2019-06-26T00:02:58.718Z,98310.22
2019-06-26T00:04:02.046Z,98318.52
2019-06-26T00:05:04.802Z,98319.72
2019-06-26T00:06:08.200Z,98322.28
2019-06-26T00:07:11.017Z,98314.34
2019-06-26T00:08:16.078Z,98317.52
2019-06-26T00:09:18.833Z,98312.77
2019-06-26T00:10:22.188Z,98323.04
2019-06-26T00:11:24.938Z,98323.04
2019-06-26T00:12:28.816Z,98323.13
2019-06-26T00:13:31.574Z,98325.33
2019-06-26T00:14:38.603Z,98322.49
2019-06-26T00:15:39.645Z,98321.28
2019-06-26T00:16:43.133Z,98321.91
2019-06-26T00:17:46.086Z,98320.06
2019-06-26T00:18:49.591Z,98323.99
2019-06-26T00:19:52.385Z,98323.26
2019-06-26T00:20:56.099Z,98321.87
2019-06-26T00:21:58.884Z,98323.54
2019-06-26T00:23:02.380Z,98330.50
2019-06-26T00:24:05.230Z,98328.04
2019-06-26T00:25:08.668Z,98328.04
2019-06-26T00:26:11.465Z,98322.64
2019-06-26T00:27:15.368Z,98322.64
2019-06-26T00:28:18.183Z,98325.09
2019-06-26T00:29:21.570Z,98327.02
2019-06-26T00:30:24.419Z,98327.62
2019-06-26T00:31:27.799Z,98328.80
2019-06-26T00:32:30.673Z,98329.78
2019-06-26T00:33:34.354Z,98320.91
2019-06-26T00:34:37.221Z,98328.27
2019-06-26T00:35:40.630Z,98326.66
2019-06-26T00:36:43.445Z,98315.94
2019-06-26T00:37:46.812Z,98315.94
2019-06-26T00:38:49.622Z,98314.83
2019-06-26T00:39:53.539Z,98326.55
2019-06-26T00:40:56.334Z,98336.52
2019-06-26T00:41:59.805Z,98325.37
2019-06-26T00:43:02.640Z,98330.36
2019-06-26T00:44:06.049Z,98328.76
2019-06-26T00:45:08.963Z,98324.76
2019-06-26T00:46:14.375Z,98324.98
2019-06-26T00:47:17.185Z,98324.58
2019-06-26T00:48:21.069Z,98329.98
2019-06-26T00:49:23.825Z,98329.98
2019-06-26T00:50:27.658Z,98330.74
2019-06-26T00:51:30.420Z,98333.52
2019-06-26T00:52:34.051Z,98335.71
2019-06-26T00:53:36.813Z,98338.55
2019-06-26T00:54:40.144Z,98334.78
2019-06-26T00:55:42.981Z,98337.16
2019-06-26T00:56:46.361Z,98335.71
2019-06-26T00:57:49.144Z,98339.28
2019-06-26T00:58:52.880Z,98341.10
2019-06-26T00:59:55.659Z,98341.10
2019-06-26T01:00:59.008Z,98340.72
2019-06-26T01:02:01.760Z,98343.72
2019-06-26T01:03:05.112Z,98346.34
2019-06-26T01:04:12.755Z,98336.62
2019-06-26T01:05:16.193Z,98350.11
2019-06-26T01:06:36.118Z,98351.29
2019-06-26T01:07:39.045Z,98351.29
2019-06-26T01:08:42.381Z,98352.89
2019-06-26T01:09:45.785Z,98350.52
2019-06-26T01:10:49.478Z,98350.52
2019-06-26T01:11:52.241Z,98352.45
2019-06-26T01:12:55.569Z,98352.91
2019-06-26T01:13:58.534Z,98350.31
2019-06-26T01:15:02.001Z,98347.31
2019-06-26T01:16:04.837Z,98345.97
2019-06-26T01:17:08.458Z,98345.97
2019-06-26T01:18:11.191Z,98340.66
2019-06-26T01:19:14.529Z,98342.62
2019-06-26T01:20:17.316Z,98351.98
2019-06-26T01:21:20.698Z,98350.55
2019-06-26T01:22:23.487Z,98350.55
2019-06-26T01:23:27.097Z,98353.53
2019-06-26T01:24:29.854Z,98353.53
2019-06-26T01:25:33.288Z,98351.55
2019-06-26T01:26:36.134Z,98354.16
2019-06-26T01:27:39.525Z,98358.53
2019-06-26T01:28:42.394Z,98357.55
2019-06-26T01:29:46.190Z,98355.34
2019-06-26T01:30:51.508Z,98362.49
2019-06-26T01:31:56.043Z,98363.05
2019-06-26T01:32:59.696Z,98363.05
2019-06-26T01:34:03.924Z,98361.66
2019-06-26T01:35:06.699Z,98356.03
2019-06-26T01:36:10.371Z,98366.34
2019-06-26T01:37:13.594Z,98366.14
2019-06-26T01:38:16.935Z,98365.52
2019-06-26T01:39:19.683Z,98362.50
2019-06-26T01:40:23.041Z,98362.45
2019-06-26T01:41:25.754Z,98364.32
2019-06-26T01:42:29.440Z,98366.78
2019-06-26T01:43:32.205Z,98362.01
2019-06-26T01:44:35.519Z,98362.01
2019-06-26T01:45:38.348Z,98368.83
2019-06-26T01:46:41.691Z,98368.83
2019-06-26T01:47:44.571Z,98362.10
2019-06-26T01:48:48.464Z,98367.45
2019-06-26T01:49:51.437Z,98364.88
2019-06-26T01:50:54.937Z,98373.62
2019-06-26T01:51:57.701Z,98369.42
2019-06-26T01:53:01.601Z,98369.42
2019-06-26T01:54:04.392Z,98377.14
2019-06-26T01:55:08.274Z,98380.69
2019-06-26T01:56:11.091Z,98383.11
2019-06-26T01:57:14.584Z,98382.92
2019-06-26T01:58:17.428Z,98382.92
2019-06-26T01:59:20.927Z,98381.73
2019-06-26T02:00:23.778Z,98382.72
2019-06-26T02:01:27.478Z,98383.70
2019-06-26T02:02:30.254Z,98379.32
2019-06-26T02:03:33.679Z,98369.64
2019-06-26T02:04:36.391Z,98377.59
2019-06-26T02:05:39.784Z,98376.81
2019-06-26T02:06:42.520Z,98376.00
2019-06-26T02:07:47.365Z,98372.65
2019-06-26T02:08:50.595Z,98380.98
2019-06-26T02:09:53.896Z,98380.98
2019-06-26T02:10:56.780Z,98376.64
2019-06-26T02:12:00.641Z,98379.80
2019-06-26T02:13:03.544Z,98379.80
2019-06-26T02:14:07.162Z,98385.36
2019-06-26T02:15:10.144Z,98379.41
2019-06-26T02:16:13.504Z,98375.86
2019-06-26T02:17:16.385Z,98375.86
2019-06-26T02:18:38.966Z,98377.83
2019-06-26T02:19:41.708Z,98377.83
2019-06-26T02:20:45.449Z,98383.76
2019-06-26T02:21:48.265Z,98381.41
2019-06-26T02:22:51.621Z,98386.15
2019-06-26T02:23:54.642Z,98381.02
2019-06-26T02:24:57.983Z,98381.02
2019-06-26T02:26:00.804Z,98385.13
2019-06-26T02:27:04.727Z,98385.13
2019-06-26T02:28:07.568Z,98378.99
2019-06-26T02:29:11.391Z,98377.98
2019-06-26T02:30:14.154Z,98377.98
2019-06-26T02:31:17.500Z,98379.38
2019-06-26T02:32:20.266Z,98379.38
2019-06-26T02:33:23.917Z,98378.95
2019-06-26T02:34:26.756Z,98375.97
2019-06-26T02:35:30.066Z,98381.44
2019-06-26T02:36:32.905Z,98371.97
2019-06-26T02:37:36.292Z,98372.18
2019-06-26T02:38:39.151Z,98378.71
2019-06-26T02:39:43.030Z,98383.70
2019-06-26T02:40:45.935Z,98381.11
2019-06-26T02:41:49.288Z,98381.88
2019-06-26T02:42:52.079Z,98386.27
2019-06-26T02:43:55.555Z,98376.33
2019-06-26T02:44:58.415Z,98381.70
2019-06-26T02:46:01.834Z,98381.70
2019-06-26T02:47:18.328Z,98381.91
2019-06-26T02:48:09.619Z,98378.73
2019-06-26T02:49:12.495Z,98386.23
2019-06-26T02:50:16.391Z,98382.08
2019-06-26T02:51:19.141Z,98386.86
2019-06-26T02:52:22.852Z,98389.05
2019-06-26T02:53:25.631Z,98390.06
2019-06-26T02:54:29.406Z,98377.94
2019-06-26T02:55:32.256Z,98390.05
2019-06-26T02:56:35.688Z,98389.47
2019-06-26T02:57:38.462Z,98390.45
2019-06-26T02:58:42.261Z,98390.69
2019-06-26T02:59:45.130Z,98396.05
2019-06-26T03:00:49.223Z,98394.45
2019-06-26T03:01:52.201Z,98391.09
2019-06-26T03:02:55.580Z,98392.84
2019-06-26T03:03:58.340Z,98394.03
2019-06-26T03:05:01.744Z,98393.42
2019-06-26T03:06:04.545Z,98390.41
2019-06-26T03:07:07.850Z,98392.37
2019-06-26T03:08:10.590Z,98392.37
2019-06-26T03:09:14.035Z,98395.72
2019-06-26T03:10:17.076Z,98398.08
2019-06-26T03:11:20.482Z,98407.61
2019-06-26T03:12:23.256Z,98406.67
2019-06-26T03:13:26.617Z,98415.20
2019-06-26T03:14:29.520Z,98415.20
2019-06-26T03:15:33.324Z,98410.48
2019-06-26T03:16:36.311Z,98410.48
2019-06-26T03:17:54.317Z,98413.09
2019-06-26T03:18:44.342Z,98403.95
2019-06-26T03:19:47.713Z,98411.48
2019-06-26T03:20:50.478Z,98411.48
2019-06-26T03:21:53.971Z,98412.66
2019-06-26T03:22:57.040Z,98413.05
2019-06-26T03:24:00.913Z,98418.98
2019-06-26T03:25:04.107Z,98418.02
2019-06-26T03:26:07.466Z,98413.66
2019-06-26T03:27:10.290Z,98405.91
2019-06-26T03:28:13.598Z,98417.59
2019-06-26T03:29:16.813Z,98417.59
2019-06-26T03:30:20.222Z,98414.83
2019-06-26T03:31:23.062Z,98410.31
2019-06-26T03:32:26.413Z,98415.08
2019-06-26T03:33:29.168Z,98419.44
2019-06-26T03:34:32.509Z,98414.66
2019-06-26T03:35:35.826Z,98420.44
2019-06-26T03:36:40.629Z,98418.28
2019-06-26T03:37:43.448Z,98420.85
2019-06-26T03:38:46.853Z,98426.75
2019-06-26T03:39:49.570Z,98422.00
2019-06-26T03:40:52.968Z,98412.69
2019-06-26T03:41:55.741Z,98420.80
2019-06-26T03:42:59.118Z,98424.36
2019-06-26T03:44:01.896Z,98423.75
2019-06-26T03:45:05.244Z,98424.33
2019-06-26T03:46:08.235Z,98425.09
2019-06-26T03:47:11.608Z,98415.80
2019-06-26T03:48:14.390Z,98424.95
2019-06-26T03:49:17.767Z,98424.95
2019-06-26T03:50:20.571Z,98428.10
2019-06-26T03:51:23.932Z,98431.28
2019-06-26T03:52:28.305Z,98431.28
2019-06-26T03:53:31.673Z,98428.34
2019-06-26T03:54:34.550Z,98428.31
2019-06-26T03:55:37.924Z,98428.70
2019-06-26T03:56:40.733Z,98437.41
2019-06-26T03:57:44.140Z,98424.11
2019-06-26T03:58:47.265Z,98433.59
2019-06-26T03:59:50.621Z,98433.59
2019-06-26T04:00:53.417Z,98439.95
2019-06-26T04:01:57.130Z,98423.45
2019-06-26T04:02:59.983Z,98440.89
2019-06-26T04:04:03.345Z,98437.09
2019-06-26T04:05:06.493Z,98437.09
2019-06-26T04:06:10.288Z,98440.77
2019-06-26T04:07:13.089Z,98437.66
2019-06-26T04:08:16.474Z,98441.27
2019-06-26T04:09:19.373Z,98443.20
2019-06-26T04:10:22.765Z,98443.20
2019-06-26T04:11:25.811Z,98446.73
2019-06-26T04:12:30.870Z,98449.48
2019-06-26T04:13:33.698Z,98449.48
2019-06-26T04:14:37.102Z,98449.92
2019-06-26T04:15:42.611Z,98451.75
2019-06-26T04:16:45.824Z,98453.16
2019-06-26T04:17:48.872Z,98451.08
2019-06-26T04:18:52.306Z,98447.89
2019-06-26T04:19:55.228Z,98447.89
2019-06-26T04:20:58.579Z,98456.14
2019-06-26T04:22:01.385Z,98455.44
2019-06-26T04:23:04.772Z,98456.66
2019-06-26T04:24:07.828Z,98456.65
2019-06-26T04:25:11.178Z,98459.20
2019-06-26T04:26:13.991Z,98460.97
2019-06-26T04:27:17.393Z,98457.98
2019-06-26T04:28:20.054Z,98451.24
2019-06-26T04:29:23.387Z,98463.59
2019-06-26T04:30:26.466Z,98463.59
2019-06-26T04:31:29.885Z,98463.43
2019-06-26T04:32:32.627Z,98461.34
2019-06-26T04:33:35.952Z,98462.16
2019-06-26T04:34:38.702Z,98462.16
2019-06-26T04:35:42.094Z,98455.86
2019-06-26T04:36:45.829Z,98458.55
2019-06-26T04:37:49.235Z,98462.94
2019-06-26T04:38:52.123Z,98454.77
2019-06-26T04:39:55.495Z,98466.09
2019-06-26T04:41:00.028Z,98463.71
2019-06-26T04:42:03.379Z,98463.71
2019-06-26T04:43:06.444Z,98464.72
2019-06-26T04:44:09.773Z,98466.90
2019-06-26T04:45:12.578Z,98465.10
2019-06-26T04:46:15.908Z,98465.10
2019-06-26T04:47:18.676Z,98467.51
2019-06-26T04:48:22.031Z,98462.15
2019-06-26T04:49:25.235Z,98462.15
2019-06-26T04:50:28.630Z,98476.63
2019-06-26T04:51:31.427Z,98483.36
2019-06-26T04:52:34.800Z,98483.36
2019-06-26T04:53:37.592Z,98476.43
2019-06-26T04:54:41.000Z,98472.84
2019-06-26T04:55:44.125Z,98470.28
2019-06-26T04:56:47.542Z,98475.04
2019-06-26T04:57:50.281Z,98475.04
2019-06-26T04:58:53.621Z,98472.88
2019-06-26T04:59:56.484Z,98472.88
2019-06-26T05:00:59.909Z,98473.42
2019-06-26T05:02:02.983Z,98473.42
2019-06-26T05:03:06.392Z,98471.25
2019-06-26T05:04:09.168Z,98475.63
2019-06-26T05:05:12.567Z,98469.90
2019-06-26T05:06:15.358Z,98474.07
2019-06-26T05:07:18.711Z,98474.07
2019-06-26T05:08:22.959Z,98474.04
2019-06-26T05:09:26.329Z,98470.07
2019-06-26T05:10:29.154Z,98469.87
2019-06-26T05:11:32.526Z,98476.20
2019-06-26T05:12:35.666Z,98478.77
2019-06-26T05:13:39.055Z,98464.88
2019-06-26T05:14:42.099Z,98477.74
2019-06-26T05:15:45.552Z,98469.39
2019-06-26T05:16:48.339Z,98481.55
2019-06-26T05:17:51.706Z,98475.38
2019-06-26T05:18:54.568Z,98475.38
2019-06-26T05:19:57.892Z,98478.94
2019-06-26T05:21:01.007Z,98480.94
2019-06-26T05:22:04.383Z,98483.35
2019-06-26T05:23:07.263Z,98483.35
2019-06-26T05:24:10.683Z,98485.72
2019-06-26T05:25:13.534Z,98480.53
2019-06-26T05:26:17.306Z,98484.13
2019-06-26T05:27:20.606Z,98473.16
2019-06-26T05:28:24.044Z,98479.11
2019-06-26T05:29:26.927Z,98480.09
2019-06-26T05:43:53.079Z,98490.72
2019-06-26T05:44:56.543Z,98490.72
2019-06-26T05:45:59.863Z,98497.28
2019-06-26T05:47:06.870Z,98497.28
2019-06-26T05:48:08.037Z,98501.46
2019-06-26T05:49:11.709Z,98496.48
2019-06-26T05:50:14.460Z,98496.66
2019-06-26T05:51:17.849Z,98496.66
2019-06-26T05:52:20.747Z,98501.44
2019-06-26T05:53:24.146Z,98503.05
2019-06-26T05:54:26.971Z,98506.79
2019-06-26T05:55:30.898Z,98506.79
2019-06-26T05:56:33.838Z,98502.81
2019-06-26T05:57:37.276Z,98502.81
2019-06-26T05:58:40.298Z,98506.58
2019-06-26T05:59:43.763Z,98507.39
2019-06-26T06:00:46.590Z,98503.40
2019-06-26T06:01:50.259Z,98504.58
2019-06-26T06:02:54.083Z,98512.75
2019-06-26T06:03:57.708Z,98512.75
2019-06-26T06:05:00.512Z,98507.60
2019-06-26T06:06:03.995Z,98512.14
2019-06-26T06:07:07.197Z,98512.14
2019-06-26T06:08:11.047Z,98518.45
2019-06-26T06:09:13.918Z,98519.00
2019-06-26T06:10:17.780Z,98517.19
2019-06-26T06:11:20.671Z,98527.67
2019-06-26T06:12:24.525Z,98524.55
2019-06-26T06:13:27.682Z,98524.55
2019-06-26T06:14:32.445Z,98528.01
2019-06-26T06:15:35.188Z,98528.01
2019-06-26T06:16:47.256Z,98531.19
2019-06-26T06:17:43.117Z,98527.92
2019-06-26T06:18:46.701Z,98527.70
2019-06-26T06:19:49.630Z,98527.70
2019-06-26T06:20:53.449Z,98530.28
2019-06-26T06:21:56.452Z,98530.28
2019-06-26T06:23:00.156Z,98528.91
2019-06-26T06:24:02.997Z,98524.30
2019-06-26T06:25:06.505Z,98532.27
2019-06-26T06:26:09.330Z,98532.27
2019-06-26T06:27:13.056Z,98531.55
2019-06-26T06:28:16.636Z,98531.03
2019-06-26T06:29:19.998Z,98542.73
2019-06-26T06:30:22.851Z,98541.26
2019-06-26T06:31:26.185Z,98532.22
2019-06-26T06:32:29.226Z,98532.22
2019-06-26T06:33:32.848Z,98542.22
2019-06-26T06:34:35.639Z,98532.77
2019-06-26T06:35:39.272Z,98533.13
2019-06-26T06:36:42.114Z,98540.27
2019-06-26T06:37:45.947Z,98540.81
2019-06-26T06:38:49.127Z,98538.23
2019-06-26T06:39:52.901Z,98542.09
2019-06-26T06:40:55.720Z,98539.13
2019-06-26T06:41:59.216Z,98539.88
2019-06-26T06:43:02.182Z,98541.72
2019-06-26T06:44:05.602Z,98546.34
2019-06-26T06:45:08.839Z,98541.77
2019-06-26T06:46:12.258Z,98541.77
2019-06-26T06:47:15.236Z,98537.39
2019-06-26T06:48:18.797Z,98538.91
2019-06-26T06:49:21.732Z,98539.07
2019-06-26T06:50:25.087Z,98541.02
2019-06-26T06:51:28.401Z,98541.02
2019-06-26T06:52:31.937Z,98542.32
2019-06-26T06:53:34.910Z,98544.89
2019-06-26T06:54:38.974Z,98548.20
2019-06-26T06:55:41.742Z,98548.20
2019-06-26T06:56:45.185Z,98555.20
2019-06-26T06:57:48.491Z,98555.20
2019-06-26T06:58:51.903Z,98555.63
2019-06-26T06:59:55.132Z,98538.61
2019-06-26T07:00:58.720Z,98538.61
2019-06-26T07:02:01.552Z,98548.59
2019-06-26T07:03:04.888Z,98543.70
2019-06-26T07:04:08.239Z,98548.86
2019-06-26T07:05:11.956Z,98545.20
2019-06-26T07:06:15.166Z,98544.20
2019-06-26T07:07:18.766Z,98545.91
2019-06-26T07:08:21.544Z,98542.69
2019-06-26T07:09:24.975Z,98549.17
2019-06-26T07:10:28.384Z,98548.23
2019-06-26T07:11:31.741Z,98548.23
2019-06-26T07:12:34.494Z,98560.05
2019-06-26T07:13:38.073Z,98553.55
2019-06-26T07:14:40.899Z,98556.59
2019-06-26T07:15:44.375Z,98556.59
2019-06-26T07:16:47.488Z,98555.56
2019-06-26T07:17:50.872Z,98557.31
2019-06-26T07:18:53.748Z,98557.31
2019-06-26T07:19:57.778Z,98557.59
2019-06-26T07:21:02.976Z,98557.59
2019-06-26T07:22:12.868Z,98560.15
2019-06-26T07:23:16.667Z,98560.15
2019-06-26T07:24:20.067Z,98560.97
2019-06-26T07:25:22.843Z,98561.83
2019-06-26T07:26:26.239Z,98568.13
2019-06-26T07:27:28.994Z,98565.17
2019-06-26T07:28:32.800Z,98564.69
2019-06-26T07:29:35.763Z,98564.69
2019-06-26T07:30:39.335Z,98568.23
2019-06-26T07:31:42.132Z,98565.27
2019-06-26T07:32:45.630Z,98565.27
2019-06-26T07:33:48.439Z,98572.80
2019-06-26T07:34:52.367Z,98572.80
2019-06-26T07:35:55.356Z,98566.29
2019-06-26T07:36:59.248Z,98566.29
2019-06-26T07:38:02.532Z,98576.10
2019-06-26T07:39:06.232Z,98568.66
2019-06-26T07:40:09.233Z,98579.01
2019-06-26T07:41:12.900Z,98571.75
2019-06-26T07:42:15.684Z,98577.67
2019-06-26T07:43:23.811Z,98577.67
2019-06-26T07:44:23.580Z,98583.91
2019-06-26T07:45:27.073Z,98578.30
2019-06-26T07:46:31.306Z,98575.45
2019-06-26T07:47:43.214Z,98580.21
2019-06-26T07:48:39.188Z,98580.67
2019-06-26T07:49:42.773Z,98580.53
2019-06-26T07:50:45.562Z,98580.53
2019-06-26T07:51:49.073Z,98583.15
2019-06-26T07:52:52.225Z,98581.91
2019-06-26T07:53:55.710Z,98574.45
2019-06-26T07:54:58.510Z,98581.33
2019-06-26T07:56:01.957Z,98577.88
2019-06-26T07:57:04.798Z,98583.25
2019-06-26T07:58:08.321Z,98584.60
2019-06-26T07:59:11.610Z,98584.60
2019-06-26T08:00:15.017Z,98583.89
2019-06-26T08:01:17.769Z,98582.39
2019-06-26T08:02:21.148Z,98576.86
2019-06-26T08:03:23.989Z,98581.88
2019-06-26T08:04:27.303Z,98580.08
2019-06-26T08:05:30.567Z,98580.12
2019-06-26T08:06:34.343Z,98580.12
2019-06-26T08:07:37.110Z,98580.56
2019-06-26T08:08:40.574Z,98583.45
2019-06-26T08:09:43.663Z,98583.11
2019-06-26T08:10:47.082Z,98583.11
2019-06-26T08:11:50.389Z,98579.33
2019-06-26T08:12:53.755Z,98579.17
2019-06-26T08:14:11.240Z,98581.44
2019-06-26T08:15:16.054Z,98581.44
2019-06-26T08:16:18.881Z,98575.53
2019-06-26T08:17:22.303Z,98585.72
2019-06-26T08:18:25.585Z,98579.42
2019-06-26T08:19:29.259Z,98577.88
2019-06-26T08:20:32.101Z,98577.38
2019-06-26T08:21:35.516Z,98577.64
2019-06-26T08:22:38.241Z,98586.80
2019-06-26T08:23:42.523Z,98583.45
2019-06-26T08:24:45.670Z,98583.45
2019-06-26T08:25:49.101Z,98590.48
2019-06-26T08:26:51.939Z,98590.48
2019-06-26T08:27:55.351Z,98583.44
2019-06-26T08:28:58.912Z,98582.01
2019-06-26T08:30:02.274Z,98593.58
2019-06-26T08:31:05.529Z,98593.58
2019-06-26T08:32:10.678Z,98589.08
2019-06-26T08:33:14.795Z,98591.28
2019-06-26T08:34:18.393Z,98585.71
2019-06-26T08:35:23.425Z,98590.83
2019-06-26T08:36:26.803Z,98594.25
2019-06-26T08:37:30.070Z,98594.25
2019-06-26T08:38:33.505Z,98590.83
2019-06-26T08:39:36.313Z,98593.38
2019-06-26T08:40:39.652Z,98586.52
2019-06-26T08:41:42.875Z,98583.27
2019-06-26T08:42:46.255Z,98591.16
2019-06-26T08:43:49.572Z,98591.16
2019-06-26T08:44:52.982Z,98583.99
2019-06-26T08:45:55.771Z,98586.42
2019-06-26T08:46:59.190Z,98590.47
2019-06-26T08:48:16.880Z,98590.47
2019-06-26T08:49:21.133Z,98593.40
2019-06-26T08:50:11.583Z,98595.58
2019-06-26T08:51:14.904Z,98594.47
2019-06-26T08:52:17.740Z,98592.86
2019-06-26T08:53:21.139Z,98589.97
2019-06-26T08:54:23.969Z,98604.37
2019-06-26T08:55:27.775Z,98594.33
2019-06-26T08:56:31.173Z,98598.63
2019-06-26T08:57:34.642Z,98594.02
2019-06-26T08:58:37.441Z,98596.82
2019-06-26T08:59:40.825Z,98599.91
2019-06-26T09:00:43.559Z,98599.91
2019-06-26T09:01:46.955Z,98589.93
2019-06-26T09:02:50.172Z,98599.73
2019-06-26T09:03:53.577Z,98605.91
2019-06-26T09:04:56.397Z,98600.45
2019-06-26T09:05:59.782Z,98597.61
2019-06-26T09:07:02.629Z,98606.17
2019-06-26T09:08:06.191Z,98601.50
2019-06-26T09:09:09.434Z,98600.78
2019-06-26T09:10:12.795Z,98600.78
2019-06-26T09:11:15.649Z,98599.31
2019-06-26T09:12:18.959Z,98587.92
2019-06-26T09:13:22.208Z,98592.49
2019-06-26T09:14:25.589Z,98591.61
2019-06-26T09:15:28.654Z,98588.81
2019-06-26T09:16:32.026Z,98599.88
2019-06-26T09:17:34.828Z,98599.88
2019-06-26T09:18:38.294Z,98592.16
2019-06-26T09:19:41.141Z,98594.52
2019-06-26T09:20:44.557Z,98592.73
2019-06-26T09:21:47.822Z,98592.73
2019-06-26T09:22:51.282Z,98590.58
2019-06-26T09:23:56.994Z,98590.58
2019-06-26T09:25:00.420Z,98596.33
2019-06-26T09:26:03.340Z,98600.17
2019-06-26T09:27:06.745Z,98597.47
2019-06-26T09:28:10.219Z,98584.45
2019-06-26T09:29:13.607Z,98581.31
2019-06-26T09:30:16.367Z,98597.59
2019-06-26T09:31:19.768Z,98601.02
2019-06-26T09:32:23.001Z,98597.62
2019-06-26T09:33:26.450Z,98603.94
2019-06-26T09:34:29.503Z,98607.66
2019-06-26T09:35:32.913Z,98607.97
2019-06-26T09:36:35.757Z,98605.70
2019-06-26T09:37:39.123Z,98590.13
2019-06-26T09:38:42.001Z,98590.29
2019-06-26T09:39:45.347Z,98591.25
2019-06-26T09:40:48.589Z,98597.64
2019-06-26T09:41:54.406Z,98599.23
2019-06-26T09:42:57.250Z,98599.23
2019-06-26T09:44:02.389Z,98601.77
2019-06-26T09:45:05.188Z,98598.80
2019-06-26T09:46:08.643Z,98603.90
2019-06-26T09:47:11.447Z,98603.90
2019-06-26T09:48:14.946Z,98610.25
2019-06-26T09:49:17.787Z,98601.51
2019-06-26T09:50:21.184Z,98604.90
2019-06-26T09:51:30.902Z,98604.90
2019-06-26T09:52:34.698Z,98604.37
2019-06-26T09:53:47.138Z,98601.88
2019-06-26T09:54:42.971Z,98604.12
2019-06-26T09:55:45.730Z,98604.12
2019-06-26T09:56:49.269Z,98607.15
2019-06-26T09:57:52.676Z,98600.69
2019-06-26T09:58:56.079Z,98603.56
2019-06-26T09:59:59.142Z,98603.56
2019-06-26T10:01:02.461Z,98611.84
2019-06-26T10:02:05.304Z,98605.19
2019-06-26T10:03:08.679Z,98604.12
2019-06-26T10:04:11.593Z,98604.12
2019-06-26T10:05:14.954Z,98599.13
2019-06-26T10:06:18.170Z,98598.20
2019-06-26T10:07:21.712Z,98598.20
2019-06-26T10:08:25.296Z,98598.20
2019-06-26T10:09:31.593Z,98598.20
2019-06-26T10:10:34.878Z,98593.97
2019-06-26T10:11:38.316Z,98593.76
2019-06-26T10:12:41.625Z,98594.51
2019-06-26T10:13:45.099Z,98592.32
2019-06-26T10:14:48.275Z,98591.34
2019-06-26T10:15:51.709Z,98593.20
2019-06-26T10:16:54.613Z,98593.20
2019-06-26T10:17:58.067Z,98588.84
2019-06-26T10:19:09.943Z,98591.55
2019-06-26T10:20:06.330Z,98596.31
2019-06-26T10:21:09.247Z,98593.38
2019-06-26T10:22:12.831Z,98591.54
2019-06-26T10:23:15.650Z,98594.27
2019-06-26T10:24:19.115Z,98587.38
2019-06-26T10:25:22.375Z,98581.66
2019-06-26T10:26:25.742Z,98584.91
2019-06-26T10:27:28.627Z,98585.33
2019-06-26T10:28:32.379Z,98580.61
2019-06-26T10:29:35.768Z,98587.86
2019-06-26T10:42:49.053Z,98574.95
2019-06-26T10:43:52.517Z,98574.95
2019-06-26T10:44:55.416Z,98565.78
2019-06-26T10:45:58.858Z,98565.78
2019-06-26T10:47:02.200Z,98575.92
2019-06-26T10:48:05.891Z,98575.59
2019-06-26T10:49:08.647Z,98576.83
2019-06-26T10:50:12.018Z,98561.27
2019-06-26T10:51:15.042Z,98572.44
2019-06-26T10:52:18.861Z,98572.20
2019-06-26T10:53:22.091Z,98577.94
2019-06-26T10:54:27.164Z,98564.30
2019-06-26T10:55:29.986Z,98574.10
2019-06-26T10:56:33.356Z,98571.20
2019-06-26T10:57:36.162Z,98573.75
2019-06-26T10:58:39.570Z,98576.64
2019-06-26T10:59:42.368Z,98573.55
2019-06-26T11:00:46.221Z,98565.74
2019-06-26T11:01:49.013Z,98570.41
2019-06-26T11:02:52.354Z,98564.33
2019-06-26T11:03:55.215Z,98574.33
2019-06-26T11:04:58.583Z,98570.71
2019-06-26T11:06:01.564Z,98570.71
2019-06-26T11:07:05.386Z,98562.55
2019-06-26T11:08:08.255Z,98567.54
2019-06-26T11:09:12.438Z,98566.59
2019-06-26T11:10:16.448Z,98566.59
2019-06-26T11:11:19.773Z,98559.39
2019-06-26T11:12:23.069Z,98562.59
2019-06-26T11:13:26.817Z,98562.22
2019-06-26T11:14:29.709Z,98559.09
2019-06-26T11:15:33.203Z,98549.98
2019-06-26T11:16:36.069Z,98553.34
2019-06-26T11:17:39.789Z,98553.34
2019-06-26T11:18:42.581Z,98559.17
2019-06-26T11:19:46.481Z,98559.31
2019-06-26T11:20:49.331Z,98558.98
2019-06-26T11:21:53.128Z,98550.89
2019-06-26T11:22:56.589Z,98550.89
2019-06-26T11:23:59.909Z,98549.43
2019-06-26T11:25:02.784Z,98560.66
2019-06-26T11:26:06.489Z,98560.66
2019-06-26T11:27:09.310Z,98569.00
2019-06-26T11:28:12.770Z,98573.16
2019-06-26T11:29:15.571Z,98573.16
2019-06-26T11:30:18.920Z,98564.84
2019-06-26T11:31:21.747Z,98553.26
2019-06-26T11:32:25.431Z,98558.30
2019-06-26T11:33:28.269Z,98558.30
2019-06-26T11:34:31.710Z,98575.19
2019-06-26T11:35:34.522Z,98567.86
2019-06-26T11:36:37.919Z,98568.63
2019-06-26T11:37:40.708Z,98558.05
2019-06-26T11:38:44.456Z,98570.95
2019-06-26T11:39:47.532Z,98570.95
2019-06-26T11:40:51.006Z,98567.52
2019-06-26T11:41:53.803Z,98568.98
2019-06-26T11:42:57.242Z,98568.30
2019-06-26T11:44:00.057Z,98568.73
2019-06-26T11:45:03.974Z,98561.66
2019-06-26T11:46:06.781Z,98566.14
2019-06-26T11:47:10.272Z,98557.12
2019-06-26T11:48:13.040Z,98559.71
2019-06-26T11:49:16.497Z,98554.22
2019-06-26T11:50:19.269Z,98554.22
2019-06-26T11:51:23.017Z,98544.45
2019-06-26T11:52:25.829Z,98553.39
2019-06-26T11:53:29.681Z,98553.39
2019-06-26T11:54:32.554Z,98551.94
2019-06-26T11:55:35.916Z,98551.94
2019-06-26T11:56:39.197Z,98546.69
2019-06-26T11:57:43.125Z,98542.69
2019-06-26T11:58:46.016Z,98542.69
2019-06-26T11:59:51.360Z,98541.28
2019-06-26T12:00:54.333Z,98545.55
2019-06-26T12:01:57.760Z,98545.55
2019-06-26T12:03:00.622Z,98542.66
2019-06-26T12:04:07.331Z,98542.66
2019-06-26T12:05:10.117Z,98553.05
2019-06-26T12:06:18.897Z,98550.50
2019-06-26T12:07:18.115Z,98555.36
2019-06-26T12:08:21.701Z,98555.84
2019-06-26T12:09:24.655Z,98554.83
2019-06-26T12:10:28.631Z,98555.59
2019-06-26T12:11:31.538Z,98551.09
2019-06-26T12:12:34.882Z,98551.09
2019-06-26T12:13:37.756Z,98545.92
2019-06-26T12:14:41.189Z,98555.62
2019-06-26T12:15:44.026Z,98555.62
2019-06-26T12:16:47.739Z,98550.45
2019-06-26T12:17:50.660Z,98558.75
2019-06-26T12:18:54.113Z,98559.05
2019-06-26T12:19:56.981Z,98554.48
2019-06-26T12:21:00.440Z,98554.48
2019-06-26T12:22:03.280Z,98557.12
2019-06-26T12:23:07.135Z,98557.12
2019-06-26T12:24:09.851Z,98555.86
2019-06-26T12:25:13.290Z,98534.48
2019-06-26T12:26:16.166Z,98534.48
2019-06-26T12:27:19.560Z,98546.52
2019-06-26T12:48:16.021Z,98533.09
2019-06-26T12:49:17.652Z,98536.77
2019-06-26T12:50:34.218Z,98536.77
2019-06-26T12:51:25.465Z,98539.55
2019-06-26T12:52:28.268Z,98535.80
2019-06-26T12:53:31.797Z,98530.41
2019-06-26T12:54:35.410Z,98530.41
2019-06-26T12:55:38.770Z,98518.59
2019-06-26T12:56:41.654Z,98518.59
2019-06-26T12:57:45.067Z,98528.97
2019-06-26T12:58:47.826Z,98530.02
2019-06-26T12:59:57.262Z,98527.50
2019-06-26T13:00:55.682Z,98512.06
2019-06-26T13:01:59.368Z,98529.47
2019-06-26T13:03:02.146Z,98530.02
2019-06-26T13:04:05.627Z,98530.02
2019-06-26T13:05:08.418Z,98525.34
2019-06-26T13:06:12.459Z,98523.70
2019-06-26T13:07:15.249Z,98529.92
2019-06-26T13:08:18.638Z,98522.94
2019-06-26T13:09:21.449Z,98522.94
2019-06-26T13:10:24.877Z,98524.52